Terminal Aerodrome Forecast
Issued by NWS

Home | Current Version | Previous Version | Text Only | Print | Product List | Glossary On
Versions: 1 2 3 4 5 6 7 8 9 10 11 12 13 14 15 16 17 18 19 20 21 22
000
FTUS41 KPBZ 270100 AAA
TAFDUJ
TAF AMD
KDUJ 270100Z 2701/2724 14014G21KT 3SM -SHRA OVC005
     FM270600 14007KT 6SM -SHRA OVC005
     FM271000 18005KT P6SM VCSH OVC010
     FM271600 24008KT P6SM BKN015
     FM272000 25008KT P6SM BKN035=

USA.gov is the U.S. government's official web portal to all federal, state and local government web resources and services.